createdAt,value
2018-01-15T00:00:47.012Z,4.00
2018-01-15T00:03:15.387Z,3.54
2018-01-15T00:05:43.744Z,4.88
2018-01-15T00:08:12.110Z,4.22
2018-01-15T00:10:40.475Z,2.73
2018-01-15T00:13:08.838Z,3.46
2018-01-15T00:15:37.231Z,3.86
2018-01-15T00:18:05.584Z,4.57
2018-01-15T00:20:33.952Z,4.50
2018-01-15T00:23:02.335Z,4.29
2018-01-15T00:25:30.688Z,4.08
2018-01-15T00:27:59.078Z,4.25
2018-01-15T00:30:27.467Z,4.78
2018-01-15T00:32:55.810Z,4.30
2018-01-15T00:35:24.172Z,4.50
2018-01-15T00:37:52.541Z,4.81
2018-01-15T00:40:21.024Z,5.02
2018-01-15T00:42:49.430Z,4.40
2018-01-15T00:45:17.772Z,4.75
2018-01-15T00:47:46.129Z,4.53
2018-01-15T00:50:14.494Z,4.60
2018-01-15T00:52:42.886Z,3.63
2018-01-15T00:55:11.252Z,3.74
2018-01-15T00:57:39.621Z,3.59
2018-01-15T01:00:07.972Z,4.56
2018-01-15T01:02:36.344Z,3.98
2018-01-15T01:05:04.692Z,3.29
2018-01-15T01:07:33.093Z,4.38
2018-01-15T01:10:01.460Z,3.39
2018-01-15T01:12:29.828Z,4.21
2018-01-15T01:14:58.306Z,3.64
2018-01-15T01:17:26.655Z,3.96
2018-01-15T01:19:55.045Z,4.12
2018-01-15T01:22:23.404Z,4.05
2018-01-15T01:24:51.762Z,3.78
2018-01-15T01:27:20.119Z,3.94
2018-01-15T01:29:48.477Z,4.33
2018-01-15T01:32:16.879Z,2.93
2018-01-15T01:34:45.230Z,3.80
2018-01-15T01:37:13.603Z,3.45
2018-01-15T01:39:41.983Z,3.84
2018-01-15T01:42:10.335Z,3.56
2018-01-15T01:44:38.748Z,4.67
2018-01-15T01:47:07.101Z,4.29
2018-01-15T01:49:35.450Z,2.78
2018-01-15T01:52:03.808Z,4.27
2018-01-15T01:54:32.167Z,3.65
2018-01-15T01:57:00.656Z,3.79
2018-01-15T01:59:29.046Z,3.92
2018-01-15T02:01:57.399Z,3.86
2018-01-15T02:04:25.805Z,4.15
2018-01-15T02:06:54.149Z,4.61
2018-01-15T02:09:22.533Z,5.17
2018-01-15T02:11:50.898Z,4.49
2018-01-15T02:14:19.252Z,5.13
2018-01-15T02:16:47.613Z,4.81
2018-01-15T02:19:16.007Z,5.02
2018-01-15T02:21:44.388Z,4.98
2018-01-15T02:24:12.760Z,4.76
2018-01-15T02:26:41.115Z,4.27
2018-01-15T02:29:09.524Z,4.04
2018-01-15T02:31:37.850Z,5.09
2018-01-15T02:34:06.228Z,4.84
2018-01-15T02:36:34.610Z,4.74
2018-01-15T02:39:02.961Z,5.24
2018-01-15T02:41:31.317Z,5.58
2018-01-15T02:43:59.665Z,4.86
2018-01-15T02:46:28.022Z,5.26
2018-01-15T02:48:56.459Z,3.76
2018-01-15T02:51:24.824Z,4.53
2018-01-15T02:53:53.190Z,4.85
2018-01-15T02:56:21.541Z,4.38
2018-01-15T02:58:49.902Z,4.10
2018-01-15T03:01:18.294Z,4.78
2018-01-15T03:03:46.654Z,4.15
2018-01-15T03:06:15.008Z,3.45
2018-01-15T03:08:43.362Z,4.13
2018-01-15T03:11:11.713Z,3.72
2018-01-15T03:13:40.113Z,4.63
2018-01-15T03:16:08.467Z,4.13
2018-01-15T03:18:36.835Z,4.19
2018-01-15T03:21:05.236Z,4.59
2018-01-15T03:23:33.642Z,4.48
2018-01-15T03:26:02.021Z,4.85
2018-01-15T03:28:30.386Z,3.70
2018-01-15T03:30:58.816Z,4.43
2018-01-15T03:33:27.197Z,4.17
2018-01-15T03:35:55.543Z,4.79
2018-01-15T03:38:23.939Z,5.32
2018-01-15T03:40:52.313Z,5.77
2018-01-15T03:43:20.694Z,5.45
2018-01-15T03:45:49.054Z,4.99
2018-01-15T03:48:17.423Z,5.25
2018-01-15T03:50:45.790Z,5.77
2018-01-15T03:53:14.151Z,5.87
2018-01-15T03:55:42.503Z,5.91
2018-01-15T03:58:10.878Z,4.74
2018-01-15T04:00:39.235Z,5.46
2018-01-15T04:03:07.640Z,5.94
2018-01-15T04:05:35.996Z,6.08
2018-01-15T04:08:04.355Z,4.33
2018-01-15T04:10:32.806Z,4.40
2018-01-15T04:13:01.148Z,5.46
2018-01-15T04:15:29.502Z,4.87
2018-01-15T04:17:57.851Z,5.42
2018-01-15T04:20:26.211Z,5.12
2018-01-15T04:22:54.614Z,3.46
2018-01-15T04:25:22.970Z,5.16
2018-01-15T04:27:51.455Z,5.74
2018-01-15T04:30:19.831Z,5.71
2018-01-15T04:32:48.188Z,5.17
2018-01-15T04:35:16.577Z,5.16
2018-01-15T04:37:44.945Z,4.78
2018-01-15T04:40:13.303Z,5.15
2018-01-15T04:42:41.653Z,5.09
2018-01-15T04:45:10.012Z,5.49
2018-01-15T04:47:38.494Z,5.75
2018-01-15T04:50:06.851Z,5.59
2018-01-15T04:52:35.251Z,4.68
2018-01-15T04:55:03.607Z,4.76
2018-01-15T04:57:31.966Z,4.85
2018-01-15T05:00:00.351Z,5.13
2018-01-15T05:02:28.746Z,5.33
2018-01-15T05:04:57.113Z,4.02
2018-01-15T05:07:25.474Z,5.36
2018-01-15T05:09:53.831Z,5.15
2018-01-15T05:12:22.212Z,4.68
2018-01-15T05:14:50.578Z,5.02
2018-01-15T05:17:18.939Z,5.05
2018-01-15T05:19:47.283Z,5.43
2018-01-15T05:22:15.642Z,5.22
2018-01-15T05:24:44.004Z,5.26
2018-01-15T05:27:12.386Z,4.50
2018-01-15T05:29:40.858Z,4.95
2018-01-15T05:32:09.220Z,5.79
2018-01-15T05:34:37.579Z,5.63
2018-01-15T05:37:05.956Z,5.56
2018-01-15T05:39:34.306Z,6.09
2018-01-15T05:42:02.665Z,6.33
2018-01-15T05:44:31.070Z,6.40
2018-01-15T05:46:59.427Z,5.54
2018-01-15T05:49:27.835Z,4.53
2018-01-15T05:51:56.219Z,5.01
2018-01-15T05:54:24.575Z,5.11
2018-01-15T05:56:52.929Z,4.47
2018-01-15T05:59:21.331Z,5.30
2018-01-15T06:01:49.696Z,5.26
2018-01-15T06:04:18.087Z,4.63
2018-01-15T06:06:46.480Z,4.19
2018-01-15T06:09:14.827Z,5.79
2018-01-15T06:11:43.187Z,5.72
2018-01-15T06:14:11.582Z,5.69
2018-01-15T06:16:39.935Z,5.44
2018-01-15T06:19:08.320Z,4.86
2018-01-15T06:21:36.698Z,5.13
2018-01-15T06:24:05.111Z,5.12
2018-01-15T06:26:33.496Z,5.08
2018-01-15T06:29:01.848Z,5.53
2018-01-15T06:31:30.199Z,4.76
2018-01-15T06:33:58.561Z,6.11
2018-01-15T06:36:26.919Z,5.28
2018-01-15T06:38:55.394Z,5.64
2018-01-15T06:41:23.747Z,4.41
2018-01-15T06:43:52.114Z,5.54
2018-01-15T06:46:20.485Z,6.12
2018-01-15T06:48:48.852Z,3.99
2018-01-15T06:51:17.260Z,4.73
2018-01-15T06:53:45.639Z,5.54
2018-01-15T06:56:14.148Z,5.05
2018-01-15T06:58:42.506Z,5.01
2018-01-15T07:01:28.097Z,5.68
2018-01-15T07:03:56.447Z,4.82
2018-01-15T07:06:25.038Z,4.85
2018-01-15T07:08:53.389Z,4.64
2018-01-15T07:11:21.806Z,5.12
2018-01-15T07:13:50.183Z,4.69
2018-01-15T07:16:18.540Z,4.80
2018-01-15T07:18:46.908Z,4.53
2018-01-15T07:21:15.361Z,5.09
2018-01-15T07:23:43.770Z,4.98
2018-01-15T07:26:12.143Z,5.56
2018-01-15T07:28:40.508Z,4.88
2018-01-15T07:31:08.984Z,4.41
2018-01-15T07:33:37.363Z,5.53
2018-01-15T07:36:05.725Z,4.50
2018-01-15T07:38:34.088Z,4.92
2018-01-15T07:41:02.543Z,5.02
2018-01-15T07:43:30.905Z,5.88
2018-01-15T07:45:59.322Z,4.91
2018-01-15T07:48:27.674Z,4.87
2018-01-15T07:50:56.036Z,4.82
2018-01-15T07:53:24.457Z,4.98
2018-01-15T07:55:52.807Z,5.62
2018-01-15T07:58:21.258Z,5.13
2018-01-15T08:00:49.620Z,4.69
2018-01-15T08:03:17.986Z,4.75
2018-01-15T08:05:46.344Z,4.82
2018-01-15T08:08:14.724Z,5.43
2018-01-15T08:10:43.118Z,5.51
2018-01-15T08:13:11.637Z,5.30
2018-01-15T08:15:39.998Z,5.04
2018-01-15T08:18:08.367Z,5.92
2018-01-15T08:20:36.730Z,5.90
2018-01-15T08:23:05.112Z,5.50
2018-01-15T08:25:33.465Z,5.39
2018-01-15T08:28:01.815Z,5.29
2018-01-15T08:30:30.180Z,5.32
2018-01-15T08:32:58.560Z,5.22
2018-01-15T08:35:26.959Z,6.54
2018-01-15T08:37:55.345Z,6.20
2018-01-15T08:40:23.705Z,6.00
2018-01-15T08:42:52.082Z,5.96
2018-01-15T08:45:20.465Z,5.84
2018-01-15T08:47:48.835Z,6.29
2018-01-15T08:50:17.205Z,6.23
2018-01-15T08:52:45.640Z,5.95
2018-01-15T08:55:14.024Z,5.62
2018-01-15T08:57:42.443Z,6.09
2018-01-15T09:00:10.834Z,6.94
2018-01-15T09:02:39.233Z,6.32
2018-01-15T09:05:07.603Z,6.12
2018-01-15T09:07:35.964Z,6.47
2018-01-15T09:10:04.343Z,6.06
2018-01-15T09:12:32.742Z,6.11
2018-01-15T09:15:01.149Z,6.61
2018-01-15T09:17:29.528Z,6.51
2018-01-15T09:19:57.883Z,6.12
2018-01-15T09:22:26.242Z,7.08
2018-01-15T09:24:54.663Z,6.92
2018-01-15T09:27:23.014Z,6.82
2018-01-15T09:29:51.470Z,6.70
2018-01-15T09:32:19.836Z,6.82
2018-01-15T09:34:48.196Z,6.72
2018-01-15T09:37:16.559Z,7.18
2018-01-15T09:39:44.936Z,6.33
2018-01-15T09:42:13.313Z,8.24
2018-01-15T09:44:41.831Z,7.25
2018-01-15T09:47:10.214Z,6.26
2018-01-15T09:49:38.572Z,6.34
2018-01-15T09:52:06.995Z,7.32
2018-01-15T09:54:35.357Z,7.79
2018-01-15T09:57:03.736Z,6.37
2018-01-15T09:59:32.130Z,6.92
2018-01-15T10:02:00.496Z,6.97
2018-01-15T10:04:28.902Z,6.98
2018-01-15T10:06:57.263Z,6.31
2018-01-15T10:09:25.633Z,6.23
2018-01-15T10:11:54.022Z,7.48
2018-01-15T10:14:22.422Z,6.77
2018-01-15T10:16:50.782Z,6.88
2018-01-15T10:19:19.180Z,7.67
2018-01-15T10:21:47.552Z,7.94
2018-01-15T10:24:15.915Z,7.11
2018-01-15T10:26:44.309Z,7.34
2018-01-15T10:29:12.764Z,7.12
2018-01-15T10:31:41.240Z,6.96
2018-01-15T10:34:09.603Z,6.95
2018-01-15T10:36:38.016Z,7.74
2018-01-15T10:39:06.407Z,7.02
2018-01-15T10:41:34.771Z,6.90
2018-01-15T10:44:03.159Z,6.76
2018-01-15T10:46:31.553Z,7.30
2018-01-15T10:48:59.930Z,7.72
2018-01-15T10:51:28.289Z,7.21
2018-01-15T10:53:56.656Z,7.33
2018-01-15T10:56:25.040Z,7.34
2018-01-15T10:58:53.430Z,6.72
2018-01-15T11:01:27.504Z,7.70
2018-01-15T11:03:55.942Z,7.45
2018-01-15T11:06:25.164Z,7.71
2018-01-15T11:08:53.529Z,6.89
2018-01-15T11:11:21.925Z,7.15
2018-01-15T11:13:50.267Z,6.79
2018-01-15T11:16:18.641Z,6.57
2018-01-15T11:18:47.055Z,7.07
2018-01-15T11:21:15.611Z,7.16
2018-01-15T11:23:44.043Z,6.94
2018-01-15T11:26:12.500Z,7.08
2018-01-15T11:28:40.863Z,7.52
2018-01-15T11:31:09.222Z,6.62
2018-01-15T11:33:37.598Z,7.45
2018-01-15T11:36:05.964Z,7.06
2018-01-15T11:38:34.322Z,6.57
2018-01-15T11:41:02.715Z,6.36
2018-01-15T11:43:31.087Z,6.91
2018-01-15T11:45:59.468Z,6.84
2018-01-15T11:48:27.846Z,6.63
2018-01-15T11:50:56.215Z,7.02
2018-01-15T11:53:24.596Z,7.05
2018-01-15T11:55:52.984Z,6.34
2018-01-15T11:58:21.368Z,6.43
2018-01-15T12:00:49.777Z,6.40
2018-01-15T12:03:18.144Z,6.58
2018-01-15T12:05:46.495Z,6.51
2018-01-15T12:08:14.915Z,7.07
2018-01-15T12:10:43.275Z,7.47
2018-01-15T12:13:11.667Z,6.83
2018-01-15T12:15:40.157Z,6.71
2018-01-15T12:18:08.514Z,7.01
2018-01-15T12:20:36.881Z,6.98
2018-01-15T12:23:05.290Z,7.10
2018-01-15T12:25:33.666Z,7.34
2018-01-15T12:28:02.028Z,6.89
2018-01-15T12:30:30.398Z,6.84
2018-01-15T12:32:58.771Z,6.61
2018-01-15T12:35:27.141Z,6.47
2018-01-15T12:37:55.505Z,6.74
2018-01-15T12:40:23.894Z,6.57
2018-01-15T12:42:52.279Z,6.83
2018-01-15T12:45:20.635Z,6.85
2018-01-15T12:47:49.020Z,6.95
2018-01-15T12:50:17.580Z,7.14
2018-01-15T12:52:45.952Z,7.46
2018-01-15T12:55:14.321Z,6.51
2018-01-15T12:57:42.724Z,7.17
2018-01-15T13:02:46.235Z,6.46
2018-01-15T13:05:14.777Z,6.37
2018-01-15T13:07:54.867Z,6.50
2018-01-15T13:10:23.251Z,6.54
2018-01-15T13:12:51.667Z,7.34
2018-01-15T13:15:20.028Z,7.25
2018-01-15T13:17:48.385Z,6.76
2018-01-15T13:20:16.879Z,6.48
2018-01-15T13:22:45.380Z,7.23
2018-01-15T13:25:14.090Z,7.37
2018-01-15T13:27:44.282Z,7.48
2018-01-15T13:30:12.701Z,7.22
2018-01-15T13:32:42.277Z,6.75
2018-01-15T13:35:11.617Z,6.64
2018-01-15T13:37:41.810Z,6.89
2018-01-15T13:40:10.170Z,7.21
2018-01-15T13:42:38.711Z,7.50
2018-01-15T13:45:07.074Z,7.01
2018-01-15T13:47:35.448Z,6.84
2018-01-15T13:50:03.818Z,6.10
2018-01-15T13:52:32.193Z,6.83
2018-01-15T13:55:00.570Z,6.94
2018-01-15T13:57:28.930Z,6.08
2018-01-15T13:59:57.376Z,6.28
2018-01-15T14:02:25.739Z,5.47
2018-01-15T14:04:54.121Z,6.13
2018-01-15T14:07:22.526Z,6.05
2018-01-15T14:09:50.883Z,6.19
2018-01-15T14:12:19.252Z,6.17
2018-01-15T14:14:47.626Z,6.44
2018-01-15T14:17:15.984Z,6.83
2018-01-15T14:19:44.391Z,6.93
2018-01-15T14:22:12.808Z,6.53
2018-01-15T14:24:41.174Z,6.36
2018-01-15T14:27:09.533Z,6.66
2018-01-15T14:29:37.900Z,6.81
2018-01-15T14:32:06.291Z,7.18
2018-01-15T14:34:34.677Z,6.83
2018-01-15T14:37:03.048Z,6.15
2018-01-15T14:39:31.445Z,6.62
2018-01-15T14:41:59.810Z,6.84
2018-01-15T14:44:30.434Z,7.13
2018-01-15T14:46:58.817Z,5.82
2018-01-15T14:49:27.182Z,7.04
2018-01-15T14:51:55.559Z,6.09
2018-01-15T14:54:23.931Z,6.06
2018-01-15T14:56:52.451Z,6.83
2018-01-15T14:59:20.812Z,6.55
2018-01-15T15:01:49.183Z,6.99
2018-01-15T15:04:17.687Z,5.67
2018-01-15T15:06:46.058Z,5.79
2018-01-15T15:09:14.478Z,5.49
2018-01-15T15:11:42.863Z,6.39
2018-01-15T15:14:11.261Z,6.07
2018-01-15T15:16:39.999Z,6.54
2018-01-15T15:19:11.995Z,7.68
2018-01-15T15:21:40.698Z,6.60
2018-01-15T15:24:09.066Z,6.23
2018-01-15T15:26:37.464Z,7.78
2018-01-15T15:29:05.841Z,7.38
2018-01-15T15:31:36.086Z,7.44
2018-01-15T15:34:05.431Z,8.16
2018-01-15T15:36:33.795Z,7.41
2018-01-15T15:42:11.498Z,8.09
2018-01-15T15:47:37.131Z,7.95
2018-01-15T15:50:05.705Z,7.69
2018-01-15T15:52:34.130Z,6.95
2018-01-15T15:55:02.583Z,7.49
2018-01-15T15:57:30.963Z,6.81
2018-01-15T16:00:10.988Z,6.90
2018-01-15T16:02:39.861Z,7.14
2018-01-15T16:05:08.216Z,7.18
2018-01-15T16:07:36.739Z,7.28
2018-01-15T16:10:05.142Z,7.33
2018-01-15T16:12:34.439Z,7.13
2018-01-15T16:15:03.233Z,6.55
2018-01-15T16:17:33.157Z,7.51
2018-01-15T16:20:04.859Z,7.31
2018-01-15T16:22:36.805Z,7.11
2018-01-15T16:25:06.669Z,7.50
2018-01-15T16:27:35.167Z,6.71
2018-01-15T16:30:03.526Z,6.68
2018-01-15T16:32:31.918Z,7.09
2018-01-15T16:35:00.283Z,7.03
2018-01-15T16:37:29.929Z,7.91
2018-01-15T16:39:58.374Z,6.85
2018-01-15T16:42:26.732Z,7.33
2018-01-15T16:44:55.205Z,7.13
2018-01-15T16:47:23.555Z,7.08
2018-01-15T16:49:52.035Z,6.86
2018-01-15T16:52:20.392Z,7.18
2018-01-15T16:54:48.751Z,6.16
2018-01-15T16:57:17.116Z,7.74
2018-01-15T16:59:45.477Z,7.24
2018-01-15T17:02:13.884Z,7.31
2018-01-15T17:04:42.235Z,8.20
2018-01-15T17:07:10.621Z,7.40
2018-01-15T17:09:39.265Z,7.80
2018-01-15T17:12:07.658Z,7.79
2018-01-15T17:14:36.272Z,8.05
2018-01-15T17:17:04.647Z,7.56
2018-01-15T17:19:33.059Z,7.25
2018-01-15T17:22:01.411Z,7.70
2018-01-15T17:24:29.853Z,7.43
2018-01-15T17:26:58.235Z,7.52
2018-01-15T17:29:26.647Z,7.51
2018-01-15T17:31:55.105Z,6.26
2018-01-15T17:34:23.458Z,6.97
2018-01-15T17:37:10.326Z,7.05
2018-01-15T17:39:38.711Z,6.09
2018-01-15T17:42:07.071Z,7.10
2018-01-15T17:44:35.422Z,7.30
2018-01-15T17:47:07.098Z,6.92
2018-01-15T17:49:35.442Z,7.29
2018-01-15T17:52:03.871Z,6.10
2018-01-15T17:54:32.252Z,7.07
2018-01-15T17:57:00.664Z,7.01
2018-01-15T17:59:32.412Z,7.06
2018-01-15T18:02:00.969Z,6.52
2018-01-15T18:04:29.471Z,6.57
2018-01-15T18:06:57.921Z,7.12
2018-01-15T18:09:26.686Z,7.08
2018-01-15T18:15:22.506Z,6.59
2018-01-15T18:17:52.126Z,7.13
2018-01-15T18:20:20.516Z,7.55
2018-01-15T18:22:49.027Z,5.97
2018-01-15T18:25:17.382Z,6.26
2018-01-15T18:27:45.736Z,7.20
2018-01-15T18:30:14.107Z,7.18
2018-01-15T18:32:42.476Z,7.24
2018-01-15T18:35:17.530Z,7.14
2018-01-15T18:37:45.928Z,6.93
2018-01-15T18:40:14.300Z,7.31
2018-01-15T18:42:42.685Z,6.93
2018-01-15T18:45:11.039Z,6.72
2018-01-15T18:47:39.399Z,7.72
2018-01-15T18:50:07.757Z,7.31
2018-01-15T18:52:36.106Z,7.45
2018-01-15T18:55:04.627Z,7.64
2018-01-15T18:57:33.146Z,7.71
2018-01-15T19:00:01.513Z,6.81
2018-01-15T19:02:29.870Z,7.03
2018-01-15T19:04:58.248Z,7.32
2018-01-15T19:07:30.587Z,6.88
2018-01-15T19:09:58.943Z,7.72
2018-01-15T19:12:27.302Z,7.56
2018-01-15T19:14:55.675Z,7.20
2018-01-15T19:17:25.932Z,6.30
2018-01-15T19:19:54.347Z,7.12
2018-01-15T19:22:22.762Z,7.50
2018-01-15T19:24:51.160Z,6.93
2018-01-15T19:27:19.511Z,6.99
2018-01-15T19:29:47.874Z,6.49
2018-01-15T19:32:16.229Z,6.83
2018-01-15T19:34:50.081Z,6.00
2018-01-15T19:37:28.104Z,7.59
2018-01-15T19:40:00.569Z,6.66
2018-01-15T19:42:28.955Z,6.87
2018-01-15T19:45:02.851Z,6.53
2018-01-15T19:47:44.603Z,6.87
2018-01-15T19:50:20.489Z,7.24
2018-01-15T19:52:55.894Z,6.99
2018-01-15T19:55:32.439Z,7.00
2018-01-15T19:58:09.260Z,6.62
2018-01-15T20:03:30.813Z,7.10
2018-01-15T20:06:04.643Z,7.02
2018-01-15T20:08:38.689Z,6.92
2018-01-15T20:11:07.087Z,7.16
2018-01-15T20:13:53.333Z,7.23
2018-01-15T20:16:21.746Z,7.32
2018-01-15T20:18:59.982Z,7.02
2018-01-15T20:21:28.361Z,6.83
2018-01-15T20:23:56.871Z,6.39
2018-01-15T20:26:25.245Z,7.36
2018-01-15T20:28:54.507Z,6.23
2018-01-15T20:31:22.896Z,6.61
2018-01-15T20:33:51.294Z,6.66
2018-01-15T20:36:19.649Z,7.65
2018-01-15T20:38:48.063Z,7.44
2018-01-15T20:41:16.427Z,7.42
2018-01-15T20:43:44.833Z,7.54
2018-01-15T20:46:13.236Z,7.20
2018-01-15T20:48:41.806Z,6.89
2018-01-15T20:51:10.166Z,6.93
2018-01-15T20:53:38.520Z,7.40
2018-01-15T20:56:06.908Z,7.61
2018-01-15T20:58:35.307Z,7.38
2018-01-15T21:01:03.731Z,6.92
2018-01-15T21:03:32.091Z,6.53
2018-01-15T21:06:00.458Z,7.76
2018-01-15T21:08:28.856Z,7.35
2018-01-15T21:10:57.275Z,7.00
2018-01-15T21:13:25.647Z,7.02
2018-01-15T21:15:54.970Z,6.85
2018-01-15T21:18:24.264Z,6.95
2018-01-15T21:20:52.750Z,6.57
2018-01-15T21:23:21.111Z,6.73
2018-01-15T21:25:49.495Z,7.28
2018-01-15T21:28:18.131Z,7.53
2018-01-15T21:30:46.475Z,7.62
2018-01-15T21:33:14.831Z,7.40
2018-01-15T21:35:43.202Z,7.01
2018-01-15T21:38:11.590Z,6.92
2018-01-15T21:40:39.944Z,7.26
2018-01-15T21:43:08.314Z,6.93
2018-01-15T21:45:36.675Z,7.39
2018-01-15T21:48:05.030Z,6.98
2018-01-15T21:50:33.451Z,7.17
2018-01-15T21:53:01.800Z,6.33
2018-01-15T21:55:30.186Z,6.43
2018-01-15T21:57:58.547Z,6.57
2018-01-15T22:00:26.935Z,7.10
2018-01-15T22:02:55.290Z,6.92
2018-01-15T22:05:23.647Z,6.51
2018-01-15T22:07:52.022Z,6.73
2018-01-15T22:10:20.367Z,7.01
2018-01-15T22:12:48.745Z,7.03
2018-01-15T22:15:17.091Z,7.51
2018-01-15T22:17:45.455Z,7.29
2018-01-15T22:20:13.819Z,7.64
2018-01-15T22:22:42.216Z,7.68
2018-01-15T22:25:10.613Z,7.29
2018-01-15T22:27:38.958Z,7.49
2018-01-15T22:30:07.315Z,7.33
2018-01-15T22:32:35.677Z,7.46
2018-01-15T22:35:04.121Z,8.35
2018-01-15T22:37:32.522Z,8.15
2018-01-15T22:40:00.868Z,7.93
2018-01-15T22:42:29.226Z,7.75
2018-01-15T22:44:57.603Z,7.90
2018-01-15T22:47:25.970Z,7.23
2018-01-15T22:49:54.357Z,7.37
2018-01-15T22:52:22.710Z,7.56
2018-01-15T22:54:51.063Z,7.30
2018-01-15T22:57:19.426Z,7.77
2018-01-15T22:59:47.783Z,7.16
2018-01-15T23:02:16.169Z,7.43
2018-01-15T23:04:44.520Z,7.78
2018-01-15T23:07:12.998Z,7.70
2018-01-15T23:09:41.347Z,7.44
2018-01-15T23:12:09.710Z,7.37
2018-01-15T23:14:38.060Z,7.48
2018-01-15T23:17:06.415Z,7.68
2018-01-15T23:19:34.790Z,8.10
2018-01-15T23:22:03.147Z,7.76
2018-01-15T23:24:31.505Z,7.34
2018-01-15T23:26:59.846Z,7.82
2018-01-15T23:29:28.215Z,7.92
2018-01-15T23:31:56.594Z,7.54
2018-01-15T23:34:24.943Z,7.26
2018-01-15T23:36:53.293Z,7.54
2018-01-15T23:39:21.639Z,8.15
2018-01-15T23:41:49.994Z,7.56
2018-01-15T23:44:18.395Z,7.85
2018-01-15T23:46:46.743Z,7.83
2018-01-15T23:49:15.082Z,7.68
2018-01-15T23:51:43.466Z,8.88
2018-01-15T23:54:23.554Z,7.84
2018-01-15T23:56:51.942Z,8.09
2018-01-15T23:59:20.304Z,8.19
